Aviation Discussion

000 FXUS63 KDTX 011102 AFDDTX AREA FORECAST DISCUSSION NATIONAL WEATHER SERVICE DETROIT/PONTIAC MI 702 AM EDT TUE SEP 1 2015 .AVIATION... EXISTING IFR/MVFR VISIBILITY RESTRICTIONS IN FOG WILL LIFT 13-14Z AS DAYTIME HEATING ENSUES. SOME INCREASE IN MOISTURE WILL TODAY WILL PROVIDE A GREATER POTENTIAL FOR A PERIOD OF SCT-BKN VFR DIURNAL CU FOR THE AFTERNOON PERIOD. SIMILAR ENVIRONMENT TONIGHT WILL AGAIN PROMOTE FOG AND/OR LOW STRATUS DEVELOPMENT...FAVORING A PERIOD OF LOW MVFR/IFR AT ALL TERMINALS DURING THE EARLY MORNING PERIOD. //DTW THRESHOLD PROBABILITIES... * MEDIUM FOR CIG AOB 5KFT AFTER 18Z TODAY

KDTW 011138Z 0112/0218 00000KT 2SM BR SCT003
FM011300 00000KT 4SM BR SCT003
FM011400 21005KT P6SM SCT035
FM011900 21008KT P6SM BKN045
FM020000 16004KT P6SM SCT045
FM020600 17003KT 4SM BR SCT003
FM020800 00000KT 2SM BR SCT001
FM021400 23005KT P6SM SCT035=

KDET 011138Z 0112/0212 00000KT 5SM BR SKC
FM011300 21008KT P6SM SCT035
FM011900 21008KT P6SM BKN045
FM020000 16004KT P6SM SCT045
FM020800 00000KT 4SM BR SKC=

Cleveland Center Weather Service Unit (CWSU)
Mission:
Our main responsibility is to provide up to the minute weather information to FAA Supervisors and the ZOB Traffic Management Unit (TMU). Some of the products issued by the CWSU are the Center Weather Advisories (CWA) and the Meteorological Impact Statement (MIS). The CWA is an aviation weather warning for thunderstorms, severe icing or turbulence, and low IFR ceilings and visibility. The MIS is a 2-12 hour forecast for weather conditions, which are expected to impact ARTCC operations.
 
Operations:
The Cleveland Center Weather Service Unit (ZOB CWSU) is located at the Federal Aviation Administration (FAA) Air Route Traffic Control Center (ARTCC) in Oberlin, OH. Four National Weather Service meteorologists staff the office. Our hours of operation are from 6:00 A.M. to 9:30 P.M. daily.

Web Site Owner:
NOAA National Weather Service
Cleveland ARTCC Attn:CWSU
326 East Lorain Street
Oberlin, OH 44074
Web Administrator:Webmaster
Page last modified: 23 Feb 2013
Disclaimer
Credits
Glossary
Privacy Policy
About Our Organization
Career Opportunities